sensor_id;sensor_type;location;lat;lon;timestamp;P1;durP1;ratioP1;P2;durP2;ratioP2
2259;SDS011;333;48.800;9.530;2022-10-16T00:00:41;6.83;;;4.87;;
2259;SDS011;333;48.800;9.530;2022-10-16T00:03:09;5.83;;;4.33;;
2259;SDS011;333;48.800;9.530;2022-10-16T00:05:40;5.73;;;5.13;;
2259;SDS011;333;48.800;9.530;2022-10-16T00:08:07;4.30;;;4.00;;
2259;SDS011;333;48.800;9.530;2022-10-16T00:10:35;5.10;;;4.70;;
2259;SDS011;333;48.800;9.530;2022-10-16T00:13:04;4.80;;;4.40;;
2259;SDS011;333;48.800;9.530;2022-10-16T00:15:32;6.83;;;4.40;;
2259;SDS011;333;48.800;9.530;2022-10-16T00:18:01;7.60;;;4.67;;
2259;SDS011;333;48.800;9.530;2022-10-16T00:20:28;4.60;;;4.17;;
2259;SDS011;333;48.800;9.530;2022-10-16T00:22:58;9.17;;;5.10;;
2259;SDS011;333;48.800;9.530;2022-10-16T00:25:25;4.77;;;4.27;;
2259;SDS011;333;48.800;9.530;2022-10-16T00:27:53;5.47;;;4.97;;
2259;SDS011;333;48.800;9.530;2022-10-16T00:30:21;6.00;;;4.20;;
2259;SDS011;333;48.800;9.530;2022-10-16T00:32:49;5.00;;;4.50;;
2259;SDS011;333;48.800;9.530;2022-10-16T00:35:16;4.73;;;3.90;;
2259;SDS011;333;48.800;9.530;2022-10-16T00:37:44;5.30;;;4.80;;
2259;SDS011;333;48.800;9.530;2022-10-16T00:40:11;4.73;;;4.23;;
2259;SDS011;333;48.800;9.530;2022-10-16T00:42:38;5.20;;;4.23;;
2259;SDS011;333;48.800;9.530;2022-10-16T00:45:06;4.30;;;3.90;;
2259;SDS011;333;48.800;9.530;2022-10-16T00:47:36;4.00;;;3.70;;
2259;SDS011;333;48.800;9.530;2022-10-16T00:50:05;4.10;;;3.80;;
2259;SDS011;333;48.800;9.530;2022-10-16T00:52:33;3.90;;;3.47;;
2259;SDS011;333;48.800;9.530;2022-10-16T00:55:01;4.20;;;3.80;;
2259;SDS011;333;48.800;9.530;2022-10-16T00:57:29;4.50;;;3.97;;
2259;SDS011;333;48.800;9.530;2022-10-16T00:59:56;4.57;;;4.17;;
2259;SDS011;333;48.800;9.530;2022-10-16T01:02:24;6.10;;;5.00;;
2259;SDS011;333;48.800;9.530;2022-10-16T01:04:52;5.53;;;4.63;;
2259;SDS011;333;48.800;9.530;2022-10-16T01:07:25;4.90;;;4.43;;
2259;SDS011;333;48.800;9.530;2022-10-16T01:09:57;7.03;;;5.00;;
2259;SDS011;333;48.800;9.530;2022-10-16T01:12:29;12.90;;;4.90;;
2259;SDS011;333;48.800;9.530;2022-10-16T01:15:02;10.80;;;5.30;;
2259;SDS011;333;48.800;9.530;2022-10-16T01:17:32;6.27;;;4.70;;
2259;SDS011;333;48.800;9.530;2022-10-16T01:20:10;4.57;;;4.17;;
2259;SDS011;333;48.800;9.530;2022-10-16T01:22:39;4.80;;;4.13;;
2259;SDS011;333;48.800;9.530;2022-10-16T01:25:09;5.60;;;5.07;;
2259;SDS011;333;48.800;9.530;2022-10-16T01:27:40;5.47;;;4.63;;
2259;SDS011;333;48.800;9.530;2022-10-16T01:30:09;5.17;;;4.67;;
2259;SDS011;333;48.800;9.530;2022-10-16T01:32:40;4.97;;;4.47;;
2259;SDS011;333;48.800;9.530;2022-10-16T01:35:09;4.83;;;4.33;;
2259;SDS011;333;48.800;9.530;2022-10-16T01:37:37;6.33;;;4.80;;
2259;SDS011;333;48.800;9.530;2022-10-16T01:40:07;6.40;;;4.30;;
2259;SDS011;333;48.800;9.530;2022-10-16T01:42:37;5.00;;;4.33;;
2259;SDS011;333;48.800;9.530;2022-10-16T01:45:08;6.83;;;4.57;;
2259;SDS011;333;48.800;9.530;2022-10-16T01:47:38;7.73;;;4.97;;
2259;SDS011;333;48.800;9.530;2022-10-16T01:50:06;5.50;;;5.00;;
2259;SDS011;333;48.800;9.530;2022-10-16T01:52:35;5.57;;;5.07;;
2259;SDS011;333;48.800;9.530;2022-10-16T01:55:04;4.93;;;4.50;;
2259;SDS011;333;48.800;9.530;2022-10-16T01:57:32;7.83;;;5.00;;
2259;SDS011;333;48.800;9.530;2022-10-16T02:00:04;5.60;;;4.23;;
2259;SDS011;333;48.800;9.530;2022-10-16T02:02:34;4.83;;;4.03;;
2259;SDS011;333;48.800;9.530;2022-10-16T02:05:02;4.40;;;4.03;;
2259;SDS011;333;48.800;9.530;2022-10-16T02:07:31;9.13;;;4.87;;
2259;SDS011;333;48.800;9.530;2022-10-16T02:09:59;5.13;;;4.03;;
2259;SDS011;333;48.800;9.530;2022-10-16T02:12:27;7.10;;;4.57;;
2259;SDS011;333;48.800;9.530;2022-10-16T02:14:55;6.03;;;4.27;;
2259;SDS011;333;48.800;9.530;2022-10-16T02:17:23;5.23;;;4.70;;
2259;SDS011;333;48.800;9.530;2022-10-16T02:19:52;5.83;;;4.70;;
2259;SDS011;333;48.800;9.530;2022-10-16T02:22:21;4.77;;;4.17;;
2259;SDS011;333;48.800;9.530;2022-10-16T02:24:51;4.27;;;3.87;;
2259;SDS011;333;48.800;9.530;2022-10-16T02:27:20;4.30;;;3.93;;
2259;SDS011;333;48.800;9.530;2022-10-16T02:29:51;3.80;;;3.20;;
2259;SDS011;333;48.800;9.530;2022-10-16T02:32:24;4.60;;;4.07;;
2259;SDS011;333;48.800;9.530;2022-10-16T02:34:53;5.20;;;4.20;;
2259;SDS011;333;48.800;9.530;2022-10-16T02:37:21;5.00;;;4.00;;
2259;SDS011;333;48.800;9.530;2022-10-16T02:39:48;7.10;;;3.63;;
2259;SDS011;333;48.800;9.530;2022-10-16T02:42:17;4.23;;;3.83;;
2259;SDS011;333;48.800;9.530;2022-10-16T02:44:44;8.40;;;3.87;;
2259;SDS011;333;48.800;9.530;2022-10-16T02:47:12;4.57;;;4.10;;
2259;SDS011;333;48.800;9.530;2022-10-16T02:49:39;4.93;;;4.43;;
2259;SDS011;333;48.800;9.530;2022-10-16T02:52:07;6.23;;;3.93;;
2259;SDS011;333;48.800;9.530;2022-10-16T02:54:35;4.63;;;4.10;;
2259;SDS011;333;48.800;9.530;2022-10-16T02:57:02;4.57;;;4.13;;
2259;SDS011;333;48.800;9.530;2022-10-16T02:59:29;4.37;;;3.80;;
2259;SDS011;333;48.800;9.530;2022-10-16T03:01:56;7.90;;;4.70;;
2259;SDS011;333;48.800;9.530;2022-10-16T03:04:23;5.20;;;4.30;;
2259;SDS011;333;48.800;9.530;2022-10-16T03:06:51;5.40;;;3.50;;
2259;SDS011;333;48.800;9.530;2022-10-16T03:09:19;5.00;;;4.07;;
2259;SDS011;333;48.800;9.530;2022-10-16T03:11:46;6.67;;;3.93;;
2259;SDS011;333;48.800;9.530;2022-10-16T03:14:14;7.50;;;3.80;;
2259;SDS011;333;48.800;9.530;2022-10-16T03:16:41;4.53;;;4.03;;
2259;SDS011;333;48.800;9.530;2022-10-16T03:19:08;12.23;;;4.37;;
2259;SDS011;333;48.800;9.530;2022-10-16T03:21:35;6.60;;;3.57;;
2259;SDS011;333;48.800;9.530;2022-10-16T03:24:03;5.27;;;4.23;;
2259;SDS011;333;48.800;9.530;2022-10-16T03:26:32;3.60;;;3.40;;
2259;SDS011;333;48.800;9.530;2022-10-16T03:28:59;4.80;;;3.57;;
2259;SDS011;333;48.800;9.530;2022-10-16T03:31:27;4.87;;;3.93;;
2259;SDS011;333;48.800;9.530;2022-10-16T03:33:54;5.03;;;4.00;;
2259;SDS011;333;48.800;9.530;2022-10-16T03:36:22;5.80;;;3.90;;
2259;SDS011;333;48.800;9.530;2022-10-16T03:38:49;5.10;;;4.60;;
2259;SDS011;333;48.800;9.530;2022-10-16T03:41:16;6.10;;;3.40;;
2259;SDS011;333;48.800;9.530;2022-10-16T03:43:45;5.50;;;3.93;;
2259;SDS011;333;48.800;9.530;2022-10-16T03:46:12;4.07;;;3.77;;
2259;SDS011;333;48.800;9.530;2022-10-16T03:48:40;5.77;;;3.80;;
2259;SDS011;333;48.800;9.530;2022-10-16T03:51:07;4.10;;;3.27;;
2259;SDS011;333;48.800;9.530;2022-10-16T03:53:34;4.70;;;3.80;;
2259;SDS011;333;48.800;9.530;2022-10-16T03:56:01;4.20;;;3.63;;
2259;SDS011;333;48.800;9.530;2022-10-16T03:58:28;3.80;;;3.50;;
2259;SDS011;333;48.800;9.530;2022-10-16T04:00:57;4.13;;;3.73;;
2259;SDS011;333;48.800;9.530;2022-10-16T04:03:24;4.20;;;3.80;;
2259;SDS011;333;48.800;9.530;2022-10-16T04:05:51;5.70;;;3.70;;
2259;SDS011;333;48.800;9.530;2022-10-16T04:08:19;4.63;;;3.13;;
2259;SDS011;333;48.800;9.530;2022-10-16T04:10:46;3.57;;;3.27;;
2259;SDS011;333;48.800;9.530;2022-10-16T04:13:13;3.90;;;3.60;;
2259;SDS011;333;48.800;9.530;2022-10-16T04:15:41;4.87;;;3.30;;
2259;SDS011;333;48.800;9.530;2022-10-16T04:18:10;3.40;;;3.20;;
2259;SDS011;333;48.800;9.530;2022-10-16T04:20:37;7.87;;;3.70;;
2259;SDS011;333;48.800;9.530;2022-10-16T04:23:04;5.07;;;3.87;;
2259;SDS011;333;48.800;9.530;2022-10-16T04:25:31;5.07;;;4.60;;
2259;SDS011;333;48.800;9.530;2022-10-16T04:27:58;4.60;;;3.70;;
2259;SDS011;333;48.800;9.530;2022-10-16T04:30:26;4.13;;;3.83;;
2259;SDS011;333;48.800;9.530;2022-10-16T04:32:53;4.93;;;3.60;;
2259;SDS011;333;48.800;9.530;2022-10-16T04:35:22;4.07;;;3.70;;
2259;SDS011;333;48.800;9.530;2022-10-16T04:37:49;5.57;;;5.10;;
2259;SDS011;333;48.800;9.530;2022-10-16T04:40:16;4.47;;;4.07;;
2259;SDS011;333;48.800;9.530;2022-10-16T04:42:43;6.13;;;5.50;;
2259;SDS011;333;48.800;9.530;2022-10-16T04:45:11;7.90;;;5.57;;
2259;SDS011;333;48.800;9.530;2022-10-16T04:47:38;5.90;;;4.33;;
2259;SDS011;333;48.800;9.530;2022-10-16T04:50:05;8.70;;;4.63;;
2259;SDS011;333;48.800;9.530;2022-10-16T04:52:34;7.43;;;5.20;;
2259;SDS011;333;48.800;9.530;2022-10-16T04:55:01;8.50;;;5.63;;
2259;SDS011;333;48.800;9.530;2022-10-16T04:57:28;5.37;;;4.87;;
2259;SDS011;333;48.800;9.530;2022-10-16T04:59:56;5.90;;;4.67;;
2259;SDS011;333;48.800;9.530;2022-10-16T05:02:23;5.20;;;4.77;;
2259;SDS011;333;48.800;9.530;2022-10-16T05:04:50;5.20;;;4.70;;
2259;SDS011;333;48.800;9.530;2022-10-16T05:07:18;5.57;;;5.07;;
2259;SDS011;333;48.800;9.530;2022-10-16T05:09:46;5.73;;;5.20;;
2259;SDS011;333;48.800;9.530;2022-10-16T05:12:13;4.80;;;4.30;;
2259;SDS011;333;48.800;9.530;2022-10-16T05:14:41;5.60;;;5.00;;
2259;SDS011;333;48.800;9.530;2022-10-16T05:17:08;5.70;;;4.27;;
2259;SDS011;333;48.800;9.530;2022-10-16T05:19:35;4.40;;;4.00;;
2259;SDS011;333;48.800;9.530;2022-10-16T05:22:02;4.40;;;4.00;;
2259;SDS011;333;48.800;9.530;2022-10-16T05:24:30;5.73;;;4.33;;
2259;SDS011;333;48.800;9.530;2022-10-16T05:26:58;8.47;;;4.83;;
2259;SDS011;333;48.800;9.530;2022-10-16T05:29:26;4.97;;;4.17;;
2259;SDS011;333;48.800;9.530;2022-10-16T05:31:53;4.00;;;3.70;;
2259;SDS011;333;48.800;9.530;2022-10-16T05:34:21;4.30;;;3.90;;
2259;SDS011;333;48.800;9.530;2022-10-16T05:36:48;4.40;;;4.00;;
2259;SDS011;333;48.800;9.530;2022-10-16T05:39:15;4.30;;;3.90;;
2259;SDS011;333;48.800;9.530;2022-10-16T05:41:43;4.20;;;3.80;;
2259;SDS011;333;48.800;9.530;2022-10-16T05:44:11;5.40;;;4.30;;
2259;SDS011;333;48.800;9.530;2022-10-16T05:46:39;6.53;;;4.73;;
2259;SDS011;333;48.800;9.530;2022-10-16T05:49:06;6.47;;;4.40;;
2259;SDS011;333;48.800;9.530;2022-10-16T05:51:33;5.67;;;4.60;;
2259;SDS011;333;48.800;9.530;2022-10-16T05:54:01;5.10;;;4.70;;
2259;SDS011;333;48.800;9.530;2022-10-16T05:56:28;8.40;;;4.67;;
2259;SDS011;333;48.800;9.530;2022-10-16T05:58:55;6.60;;;5.63;;
2259;SDS011;333;48.800;9.530;2022-10-16T06:01:24;7.53;;;5.43;;
2259;SDS011;333;48.800;9.530;2022-10-16T06:03:51;5.03;;;4.63;;
2259;SDS011;333;48.800;9.530;2022-10-16T06:06:20;6.03;;;5.43;;
2259;SDS011;333;48.800;9.530;2022-10-16T06:08:48;5.37;;;4.97;;
2259;SDS011;333;48.800;9.530;2022-10-16T06:11:17;5.27;;;4.83;;
2259;SDS011;333;48.800;9.530;2022-10-16T06:13:44;5.23;;;4.53;;
2259;SDS011;333;48.800;9.530;2022-10-16T06:16:12;8.43;;;6.50;;
2259;SDS011;333;48.800;9.530;2022-10-16T06:18:41;4.87;;;4.47;;
2259;SDS011;333;48.800;9.530;2022-10-16T06:21:09;5.10;;;4.13;;
2259;SDS011;333;48.800;9.530;2022-10-16T06:23:36;6.30;;;4.20;;
2259;SDS011;333;48.800;9.530;2022-10-16T06:26:04;6.00;;;5.00;;
2259;SDS011;333;48.800;9.530;2022-10-16T06:28:32;5.10;;;4.30;;
2259;SDS011;333;48.800;9.530;2022-10-16T06:30:59;5.03;;;4.53;;
2259;SDS011;333;48.800;9.530;2022-10-16T06:33:27;4.77;;;4.37;;
2259;SDS011;333;48.800;9.530;2022-10-16T06:36:01;6.17;;;4.50;;
2259;SDS011;333;48.800;9.530;2022-10-16T06:38:29;5.20;;;4.70;;
2259;SDS011;333;48.800;9.530;2022-10-16T06:40:56;5.90;;;5.30;;
2259;SDS011;333;48.800;9.530;2022-10-16T06:43:23;5.33;;;4.60;;
2259;SDS011;333;48.800;9.530;2022-10-16T06:45:51;7.40;;;5.63;;
2259;SDS011;333;48.800;9.530;2022-10-16T06:48:19;6.20;;;5.20;;
2259;SDS011;333;48.800;9.530;2022-10-16T06:50:54;6.30;;;4.63;;
2259;SDS011;333;48.800;9.530;2022-10-16T06:53:23;5.10;;;4.70;;
2259;SDS011;333;48.800;9.530;2022-10-16T06:55:51;5.93;;;4.70;;
2259;SDS011;333;48.800;9.530;2022-10-16T06:58:18;6.93;;;5.63;;
2259;SDS011;333;48.800;9.530;2022-10-16T07:00:45;10.63;;;5.70;;
2259;SDS011;333;48.800;9.530;2022-10-16T07:03:12;5.23;;;4.30;;
2259;SDS011;333;48.800;9.530;2022-10-16T07:05:40;5.20;;;4.30;;
2259;SDS011;333;48.800;9.530;2022-10-16T07:08:08;4.87;;;4.37;;
2259;SDS011;333;48.800;9.530;2022-10-16T07:10:37;5.47;;;4.93;;
2259;SDS011;333;48.800;9.530;2022-10-16T07:13:04;5.40;;;4.90;;
2259;SDS011;333;48.800;9.530;2022-10-16T07:15:32;4.27;;;3.50;;
2259;SDS011;333;48.800;9.530;2022-10-16T07:18:00;5.80;;;5.20;;
2259;SDS011;333;48.800;9.530;2022-10-16T07:20:27;5.90;;;3.83;;
2259;SDS011;333;48.800;9.530;2022-10-16T07:22:54;4.00;;;3.70;;
2259;SDS011;333;48.800;9.530;2022-10-16T07:25:21;3.67;;;3.30;;
2259;SDS011;333;48.800;9.530;2022-10-16T07:27:50;7.50;;;5.00;;
2259;SDS011;333;48.800;9.530;2022-10-16T07:30:21;3.70;;;3.40;;
2259;SDS011;333;48.800;9.530;2022-10-16T07:32:49;4.83;;;4.43;;
2259;SDS011;333;48.800;9.530;2022-10-16T07:35:16;3.60;;;3.30;;
2259;SDS011;333;48.800;9.530;2022-10-16T07:37:44;6.93;;;4.30;;
2259;SDS011;333;48.800;9.530;2022-10-16T07:40:11;4.20;;;3.90;;
2259;SDS011;333;48.800;9.530;2022-10-16T07:42:39;3.70;;;3.30;;
2259;SDS011;333;48.800;9.530;2022-10-16T07:45:08;5.20;;;4.80;;
2259;SDS011;333;48.800;9.530;2022-10-16T07:47:35;5.70;;;5.17;;
2259;SDS011;333;48.800;9.530;2022-10-16T07:50:03;8.50;;;6.67;;
2259;SDS011;333;48.800;9.530;2022-10-16T07:52:30;6.33;;;5.83;;
2259;SDS011;333;48.800;9.530;2022-10-16T07:54:57;5.23;;;4.73;;
2259;SDS011;333;48.800;9.530;2022-10-16T07:57:24;5.13;;;4.40;;
2259;SDS011;333;48.800;9.530;2022-10-16T07:59:51;4.20;;;3.90;;
2259;SDS011;333;48.800;9.530;2022-10-16T08:02:20;4.63;;;4.30;;
2259;SDS011;333;48.800;9.530;2022-10-16T08:04:47;6.83;;;3.97;;
2259;SDS011;333;48.800;9.530;2022-10-16T08:07:15;4.03;;;3.73;;
2259;SDS011;333;48.800;9.530;2022-10-16T08:09:42;7.90;;;5.70;;
2259;SDS011;333;48.800;9.530;2022-10-16T08:12:09;5.40;;;4.93;;
2259;SDS011;333;48.800;9.530;2022-10-16T08:14:36;4.53;;;4.13;;
2259;SDS011;333;48.800;9.530;2022-10-16T08:17:04;4.43;;;4.03;;
2259;SDS011;333;48.800;9.530;2022-10-16T08:19:32;4.10;;;3.60;;
2259;SDS011;333;48.800;9.530;2022-10-16T08:22:00;4.60;;;4.30;;
2259;SDS011;333;48.800;9.530;2022-10-16T08:24:27;3.67;;;3.37;;
2259;SDS011;333;48.800;9.530;2022-10-16T08:26:56;4.30;;;3.80;;
2259;SDS011;333;48.800;9.530;2022-10-16T08:29:23;4.83;;;4.33;;
2259;SDS011;333;48.800;9.530;2022-10-16T08:31:51;4.67;;;3.90;;
2259;SDS011;333;48.800;9.530;2022-10-16T08:34:18;3.67;;;3.37;;
2259;SDS011;333;48.800;9.530;2022-10-16T08:36:47;3.63;;;3.33;;
2259;SDS011;333;48.800;9.530;2022-10-16T08:39:15;3.20;;;2.67;;
2259;SDS011;333;48.800;9.530;2022-10-16T08:44:28;3.60;;;2.40;;
2259;SDS011;333;48.800;9.530;2022-10-16T08:47:00;3.87;;;2.60;;
2259;SDS011;333;48.800;9.530;2022-10-16T08:49:30;3.30;;;3.00;;
2259;SDS011;333;48.800;9.530;2022-10-16T08:51:59;3.60;;;3.10;;
2259;SDS011;333;48.800;9.530;2022-10-16T08:54:28;4.13;;;3.73;;
2259;SDS011;333;48.800;9.530;2022-10-16T08:56:57;5.07;;;4.57;;
2259;SDS011;333;48.800;9.530;2022-10-16T08:59:27;5.70;;;4.47;;
2259;SDS011;333;48.800;9.530;2022-10-16T09:01:54;4.00;;;3.43;;
2259;SDS011;333;48.800;9.530;2022-10-16T09:04:30;3.70;;;3.40;;
2259;SDS011;333;48.800;9.530;2022-10-16T09:07:08;3.70;;;3.30;;
2259;SDS011;333;48.800;9.530;2022-10-16T09:09:43;3.73;;;3.43;;
2259;SDS011;333;48.800;9.530;2022-10-16T09:12:14;4.47;;;3.13;;
2259;SDS011;333;48.800;9.530;2022-10-16T09:14:47;3.37;;;2.63;;
2259;SDS011;333;48.800;9.530;2022-10-16T09:17:24;2.50;;;2.30;;
2259;SDS011;333;48.800;9.530;2022-10-16T09:19:55;2.50;;;2.30;;
2259;SDS011;333;48.800;9.530;2022-10-16T09:22:27;2.20;;;2.10;;
2259;SDS011;333;48.800;9.530;2022-10-16T09:24:54;2.90;;;2.30;;
2259;SDS011;333;48.800;9.530;2022-10-16T09:27:22;3.03;;;2.53;;
2259;SDS011;333;48.800;9.530;2022-10-16T09:29:49;3.23;;;2.27;;
2259;SDS011;333;48.800;9.530;2022-10-16T09:32:17;2.57;;;2.37;;
2259;SDS011;333;48.800;9.530;2022-10-16T09:34:45;2.43;;;2.23;;
2259;SDS011;333;48.800;9.530;2022-10-16T09:37:14;2.70;;;2.50;;
2259;SDS011;333;48.800;9.530;2022-10-16T09:39:46;3.00;;;2.50;;
2259;SDS011;333;48.800;9.530;2022-10-16T09:42:14;6.83;;;2.17;;
2259;SDS011;333;48.800;9.530;2022-10-16T09:44:41;5.00;;;2.60;;
2259;SDS011;333;48.800;9.530;2022-10-16T09:47:12;2.50;;;2.30;;
2259;SDS011;333;48.800;9.530;2022-10-16T09:49:49;3.60;;;2.40;;
2259;SDS011;333;48.800;9.530;2022-10-16T09:52:18;2.93;;;2.17;;
2259;SDS011;333;48.800;9.530;2022-10-16T09:54:50;2.80;;;2.30;;
2259;SDS011;333;48.800;9.530;2022-10-16T09:57:17;2.40;;;2.20;;
2259;SDS011;333;48.800;9.530;2022-10-16T09:59:48;2.93;;;2.67;;
2259;SDS011;333;48.800;9.530;2022-10-16T10:02:16;5.50;;;3.27;;
2259;SDS011;333;48.800;9.530;2022-10-16T10:04:46;3.40;;;3.10;;
2259;SDS011;333;48.800;9.530;2022-10-16T10:07:18;5.60;;;3.13;;
2259;SDS011;333;48.800;9.530;2022-10-16T10:09:47;4.27;;;2.70;;
2259;SDS011;333;48.800;9.530;2022-10-16T10:12:18;2.90;;;2.70;;
2259;SDS011;333;48.800;9.530;2022-10-16T10:14:46;4.97;;;2.57;;
2259;SDS011;333;48.800;9.530;2022-10-16T10:17:15;4.43;;;2.70;;
2259;SDS011;333;48.800;9.530;2022-10-16T10:19:47;7.33;;;2.93;;
2259;SDS011;333;48.800;9.530;2022-10-16T10:22:25;2.53;;;2.33;;
2259;SDS011;333;48.800;9.530;2022-10-16T10:24:56;3.00;;;1.70;;
2259;SDS011;333;48.800;9.530;2022-10-16T10:27:27;3.33;;;2.50;;
2259;SDS011;333;48.800;9.530;2022-10-16T10:29:58;2.27;;;2.17;;
2259;SDS011;333;48.800;9.530;2022-10-16T10:32:30;5.03;;;2.30;;
2259;SDS011;333;48.800;9.530;2022-10-16T10:35:05;1.67;;;1.57;;
2259;SDS011;333;48.800;9.530;2022-10-16T10:37:37;3.10;;;2.40;;
2259;SDS011;333;48.800;9.530;2022-10-16T10:40:11;2.13;;;1.93;;
2259;SDS011;333;48.800;9.530;2022-10-16T10:42:43;2.07;;;1.90;;
2259;SDS011;333;48.800;9.530;2022-10-16T10:45:17;2.97;;;2.77;;
2259;SDS011;333;48.800;9.530;2022-10-16T10:47:47;3.17;;;2.30;;
2259;SDS011;333;48.800;9.530;2022-10-16T10:50:18;2.90;;;2.50;;
2259;SDS011;333;48.800;9.530;2022-10-16T10:52:52;3.20;;;2.50;;
2259;SDS011;333;48.800;9.530;2022-10-16T10:55:23;1.73;;;1.63;;
2259;SDS011;333;48.800;9.530;2022-10-16T10:57:56;2.17;;;1.80;;
2259;SDS011;333;48.800;9.530;2022-10-16T11:00:28;2.20;;;1.70;;
2259;SDS011;333;48.800;9.530;2022-10-16T11:02:59;2.50;;;1.80;;
2259;SDS011;333;48.800;9.530;2022-10-16T11:05:38;1.90;;;1.77;;
2259;SDS011;333;48.800;9.530;2022-10-16T11:08:07;3.30;;;1.70;;
2259;SDS011;333;48.800;9.530;2022-10-16T11:10:40;1.80;;;1.60;;
2259;SDS011;333;48.800;9.530;2022-10-16T11:13:14;1.33;;;1.23;;
2259;SDS011;333;48.800;9.530;2022-10-16T11:15:44;3.53;;;2.13;;
2259;SDS011;333;48.800;9.530;2022-10-16T11:18:15;1.67;;;1.57;;
2259;SDS011;333;48.800;9.530;2022-10-16T11:20:45;2.10;;;2.00;;
2259;SDS011;333;48.800;9.530;2022-10-16T11:23:14;4.17;;;1.57;;
2259;SDS011;333;48.800;9.530;2022-10-16T11:25:43;2.33;;;1.70;;
2259;SDS011;333;48.800;9.530;2022-10-16T11:28:13;2.10;;;2.00;;
2259;SDS011;333;48.800;9.530;2022-10-16T11:30:42;2.17;;;1.60;;
2259;SDS011;333;48.800;9.530;2022-10-16T11:33:17;2.40;;;1.83;;
2259;SDS011;333;48.800;9.530;2022-10-16T11:35:47;2.30;;;2.10;;
2259;SDS011;333;48.800;9.530;2022-10-16T11:38:21;2.13;;;1.93;;
2259;SDS011;333;48.800;9.530;2022-10-16T11:40:53;2.03;;;1.83;;
2259;SDS011;333;48.800;9.530;2022-10-16T11:43:26;3.57;;;2.00;;
2259;SDS011;333;48.800;9.530;2022-10-16T11:45:56;2.43;;;1.90;;
2259;SDS011;333;48.800;9.530;2022-10-16T11:48:26;1.43;;;1.33;;
2259;SDS011;333;48.800;9.530;2022-10-16T11:50:56;1.87;;;1.50;;
2259;SDS011;333;48.800;9.530;2022-10-16T11:53:29;2.13;;;1.80;;
2259;SDS011;333;48.800;9.530;2022-10-16T11:55:58;1.70;;;1.57;;
2259;SDS011;333;48.800;9.530;2022-10-16T11:58:27;0.97;;;0.97;;
2259;SDS011;333;48.800;9.530;2022-10-16T12:00:59;1.60;;;1.50;;
2259;SDS011;333;48.800;9.530;2022-10-16T12:03:29;2.30;;;1.30;;
2259;SDS011;333;48.800;9.530;2022-10-16T12:06:06;1.53;;;1.33;;
2259;SDS011;333;48.800;9.530;2022-10-16T12:08:39;2.07;;;1.43;;
2259;SDS011;333;48.800;9.530;2022-10-16T12:11:07;1.80;;;1.70;;
2259;SDS011;333;48.800;9.530;2022-10-16T12:13:37;1.83;;;1.60;;
2259;SDS011;333;48.800;9.530;2022-10-16T12:16:05;2.57;;;1.53;;
2259;SDS011;333;48.800;9.530;2022-10-16T12:18:32;2.50;;;1.60;;
2259;SDS011;333;48.800;9.530;2022-10-16T12:20:59;1.37;;;1.27;;
2259;SDS011;333;48.800;9.530;2022-10-16T12:23:31;1.50;;;1.40;;
2259;SDS011;333;48.800;9.530;2022-10-16T12:25:59;1.90;;;1.50;;
2259;SDS011;333;48.800;9.530;2022-10-16T12:28:28;3.43;;;1.77;;
2259;SDS011;333;48.800;9.530;2022-10-16T12:30:58;1.93;;;1.77;;
2259;SDS011;333;48.800;9.530;2022-10-16T12:33:26;1.70;;;1.43;;
2259;SDS011;333;48.800;9.530;2022-10-16T12:35:54;1.43;;;1.33;;
2259;SDS011;333;48.800;9.530;2022-10-16T12:38:24;1.87;;;1.57;;
2259;SDS011;333;48.800;9.530;2022-10-16T12:40:56;2.13;;;1.40;;
2259;SDS011;333;48.800;9.530;2022-10-16T12:43:26;1.97;;;1.87;;
2259;SDS011;333;48.800;9.530;2022-10-16T12:46:05;2.80;;;1.77;;
2259;SDS011;333;48.800;9.530;2022-10-16T12:48:32;2.10;;;1.50;;
2259;SDS011;333;48.800;9.530;2022-10-16T12:51:09;1.60;;;1.40;;
2259;SDS011;333;48.800;9.530;2022-10-16T12:53:37;1.93;;;1.73;;
2259;SDS011;333;48.800;9.530;2022-10-16T12:56:13;1.77;;;1.67;;
2259;SDS011;333;48.800;9.530;2022-10-16T12:58:49;2.30;;;1.87;;
2259;SDS011;333;48.800;9.530;2022-10-16T13:01:24;1.60;;;1.50;;
2259;SDS011;333;48.800;9.530;2022-10-16T13:04:10;2.17;;;1.97;;
2259;SDS011;333;48.800;9.530;2022-10-16T13:06:42;2.30;;;1.83;;
2259;SDS011;333;48.800;9.530;2022-10-16T13:09:15;1.93;;;1.80;;
2259;SDS011;333;48.800;9.530;2022-10-16T13:11:52;2.10;;;1.90;;
2259;SDS011;333;48.800;9.530;2022-10-16T13:14:28;2.73;;;2.07;;
2259;SDS011;333;48.800;9.530;2022-10-16T13:17:04;2.37;;;1.40;;
2259;SDS011;333;48.800;9.530;2022-10-16T13:19:36;1.80;;;1.70;;
2259;SDS011;333;48.800;9.530;2022-10-16T13:22:06;1.43;;;1.33;;
2259;SDS011;333;48.800;9.530;2022-10-16T13:24:42;2.10;;;1.90;;
2259;SDS011;333;48.800;9.530;2022-10-16T13:27:16;2.60;;;2.13;;
2259;SDS011;333;48.800;9.530;2022-10-16T13:29:48;2.00;;;1.53;;
2259;SDS011;333;48.800;9.530;2022-10-16T13:32:21;2.00;;;1.80;;
2259;SDS011;333;48.800;9.530;2022-10-16T13:34:49;2.90;;;2.00;;
2259;SDS011;333;48.800;9.530;2022-10-16T13:37:17;3.40;;;1.60;;
2259;SDS011;333;48.800;9.530;2022-10-16T13:39:45;2.03;;;1.43;;
2259;SDS011;333;48.800;9.530;2022-10-16T13:42:14;2.83;;;2.17;;
2259;SDS011;333;48.800;9.530;2022-10-16T13:44:43;4.10;;;2.07;;
2259;SDS011;333;48.800;9.530;2022-10-16T13:47:15;1.50;;;1.40;;
2259;SDS011;333;48.800;9.530;2022-10-16T13:49:43;5.73;;;2.10;;
2259;SDS011;333;48.800;9.530;2022-10-16T13:52:18;2.90;;;2.03;;
2259;SDS011;333;48.800;9.530;2022-10-16T13:54:45;2.03;;;1.93;;
2259;SDS011;333;48.800;9.530;2022-10-16T13:57:13;2.10;;;1.90;;
2259;SDS011;333;48.800;9.530;2022-10-16T13:59:40;2.40;;;1.70;;
2259;SDS011;333;48.800;9.530;2022-10-16T14:02:10;1.80;;;1.70;;
2259;SDS011;333;48.800;9.530;2022-10-16T14:04:40;1.70;;;1.60;;
2259;SDS011;333;48.800;9.530;2022-10-16T14:07:12;1.93;;;1.37;;
2259;SDS011;333;48.800;9.530;2022-10-16T14:09:41;2.80;;;1.70;;
2259;SDS011;333;48.800;9.530;2022-10-16T14:12:08;1.50;;;1.40;;
2259;SDS011;333;48.800;9.530;2022-10-16T14:14:40;1.80;;;1.53;;
2259;SDS011;333;48.800;9.530;2022-10-16T14:17:13;1.30;;;1.20;;
2259;SDS011;333;48.800;9.530;2022-10-16T14:19:40;2.40;;;1.73;;
2259;SDS011;333;48.800;9.530;2022-10-16T14:24:59;4.20;;;1.50;;
2259;SDS011;333;48.800;9.530;2022-10-16T14:27:28;1.70;;;1.57;;
2259;SDS011;333;48.800;9.530;2022-10-16T14:30:08;2.90;;;1.80;;
2259;SDS011;333;48.800;9.530;2022-10-16T14:32:40;5.67;;;2.10;;
2259;SDS011;333;48.800;9.530;2022-10-16T14:35:11;4.23;;;2.00;;
2259;SDS011;333;48.800;9.530;2022-10-16T14:37:50;3.53;;;2.00;;
2259;SDS011;333;48.800;9.530;2022-10-16T14:40:19;3.70;;;1.90;;
2259;SDS011;333;48.800;9.530;2022-10-16T14:42:47;1.67;;;1.57;;
2259;SDS011;333;48.800;9.530;2022-10-16T14:45:15;4.97;;;2.10;;
2259;SDS011;333;48.800;9.530;2022-10-16T14:47:49;2.43;;;2.23;;
2259;SDS011;333;48.800;9.530;2022-10-16T14:50:17;2.87;;;2.00;;
2259;SDS011;333;48.800;9.530;2022-10-16T14:52:44;2.50;;;2.30;;
2259;SDS011;333;48.800;9.530;2022-10-16T14:55:11;6.20;;;2.10;;
2259;SDS011;333;48.800;9.530;2022-10-16T14:57:40;2.30;;;2.10;;
2259;SDS011;333;48.800;9.530;2022-10-16T15:00:13;2.83;;;1.50;;
2259;SDS011;333;48.800;9.530;2022-10-16T15:02:41;1.90;;;1.80;;
2259;SDS011;333;48.800;9.530;2022-10-16T15:05:13;2.30;;;1.30;;
2259;SDS011;333;48.800;9.530;2022-10-16T15:07:40;2.43;;;1.60;;
2259;SDS011;333;48.800;9.530;2022-10-16T15:10:08;2.33;;;1.97;;
2259;SDS011;333;48.800;9.530;2022-10-16T15:12:35;3.63;;;2.27;;
2259;SDS011;333;48.800;9.530;2022-10-16T15:15:10;3.43;;;1.90;;
2259;SDS011;333;48.800;9.530;2022-10-16T15:17:43;3.53;;;2.03;;
2259;SDS011;333;48.800;9.530;2022-10-16T15:20:10;4.77;;;2.80;;
2259;SDS011;333;48.800;9.530;2022-10-16T15:22:37;9.63;;;1.90;;
2259;SDS011;333;48.800;9.530;2022-10-16T15:25:25;5.53;;;1.70;;
2259;SDS011;333;48.800;9.530;2022-10-16T15:27:54;2.00;;;1.30;;
2259;SDS011;333;48.800;9.530;2022-10-16T15:30:22;1.80;;;1.63;;
2259;SDS011;333;48.800;9.530;2022-10-16T15:32:50;3.60;;;1.70;;
2259;SDS011;333;48.800;9.530;2022-10-16T15:35:17;4.87;;;1.70;;
2259;SDS011;333;48.800;9.530;2022-10-16T15:37:45;3.13;;;1.90;;
2259;SDS011;333;48.800;9.530;2022-10-16T15:40:12;7.10;;;2.37;;
2259;SDS011;333;48.800;9.530;2022-10-16T15:42:40;1.90;;;1.70;;
2259;SDS011;333;48.800;9.530;2022-10-16T15:45:08;4.93;;;2.10;;
2259;SDS011;333;48.800;9.530;2022-10-16T15:47:37;1.83;;;1.73;;